Time;durP1;ratioP1;P1;durP2;ratioP2;P2;SDS_P1;SDS_P2;PMS_P1;PMS_P2;Temp;Humidity;BMP_temperature;BMP_pressure;BME280_temperature;BME280_humidity;BME280_pressure;Samples;Min_cycle;Max_cycle;Signal;HPM_P1;HPM_P2
2022/08/02 00:03:47;;;;;;;1.27;0.60;;;28.90;50.70;;;;;;10392408;28;20132;-43
2022/08/02 00:08:49;;;;;;;1.42;0.70;;;28.90;50.50;;;;;;10392589;28;20100;-43
2022/08/02 00:13:51;;;;;;;1.75;0.75;;;28.80;50.40;;;;;;10391353;28;20128;-43
2022/08/02 00:18:54;;;;;;;1.13;0.60;;;28.80;50.70;;;;;;10392571;28;20143;-42
2022/08/02 00:23:56;;;;;;;1.02;0.68;;;28.80;50.40;;;;;;10392260;28;20128;-41
2022/08/02 00:28:58;;;;;;;1.98;0.88;;;28.70;50.90;;;;;;10392318;28;20041;-42
2022/08/02 00:34:01;;;;;;;1.25;0.65;;;28.70;50.40;;;;;;10394936;28;20124;-48
2022/08/02 00:39:03;;;;;;;1.80;0.60;;;28.70;50.40;;;;;;10400306;28;20230;-43
2022/08/02 00:44:05;;;;;;;0.85;0.63;;;28.60;50.40;;;;;;10399597;28;20065;-41
2022/08/02 00:49:10;;;;;;;0.63;0.50;;;28.50;50.40;;;;;;10399825;28;21028;-42
2022/08/02 00:54:13;;;;;;;0.65;0.50;;;28.50;50.40;;;;;;10399333;28;20087;-42
2022/08/02 00:59:15;;;;;;;1.58;0.77;;;28.50;50.30;;;;;;10399025;28;20478;-44
2022/08/02 01:04:18;;;;;;;1.33;0.60;;;28.50;50.40;;;;;;10397500;28;20046;-41
2022/08/02 01:09:20;;;;;;;1.80;0.60;;;28.40;50.30;;;;;;10394748;28;20175;-43
2022/08/02 01:14:24;;;;;;;0.55;0.43;;;28.40;50.30;;;;;;10395116;28;20045;-46
2022/08/02 01:19:36;;;;;;;1.17;0.70;;;28.30;50.30;;;;;;10398311;28;20050;-43
2022/08/02 01:25:01;;;;;;;0.50;0.50;;;28.30;50.40;;;;;;10394759;28;20080;-44
2022/08/02 01:30:06;;;;;;;0.65;0.55;;;28.30;50.30;;;;;;10398464;28;20045;-45
2022/08/02 01:35:13;;;;;;;1.08;0.68;;;28.20;50.20;;;;;;10399091;28;20045;-40
2022/08/02 01:40:21;;;;;;;0.85;0.50;;;28.20;50.20;;;;;;10398293;28;20125;-42
2022/08/02 01:45:26;;;;;;;0.70;0.50;;;28.20;50.30;;;;;;10398376;28;20046;-39
2022/08/02 01:50:32;;;;;;;1.50;0.63;;;28.10;50.40;;;;;;10399631;28;20123;-41
2022/08/02 01:55:39;;;;;;;1.75;0.80;;;28.10;50.10;;;;;;10398185;28;20672;-40
2022/08/02 02:00:43;;;;;;;0.57;0.43;;;28.10;50.10;;;;;;10398473;28;20132;-40
2022/08/02 02:05:48;;;;;;;0.47;0.40;;;28.00;50.10;;;;;;10398160;28;20487;-40
2022/08/02 02:10:51;;;;;;;1.00;0.40;;;28.00;50.00;;;;;;10397650;28;20119;-45
2022/08/02 02:15:56;;;;;;;0.77;0.52;;;27.90;50.00;;;;;;10399561;28;20069;-44
2022/08/02 02:20:58;;;;;;;1.60;0.50;;;27.90;50.20;;;;;;10397228;28;20142;-44
2022/08/02 02:26:00;;;;;;;0.88;0.50;;;27.90;50.10;;;;;;10397952;28;20053;-40
2022/08/02 02:31:08;;;;;;;0.90;0.50;;;27.90;50.10;;;;;;10396442;28;20389;-47
2022/08/02 02:36:11;;;;;;;1.80;0.50;;;27.80;50.10;;;;;;10398044;28;20104;-43
2022/08/02 02:41:15;;;;;;;1.02;0.60;;;27.80;50.00;;;;;;10397964;28;20085;-45
2022/08/02 02:46:20;;;;;;;0.85;0.57;;;27.70;50.10;;;;;;10397128;28;20136;-47
2022/08/02 02:51:23;;;;;;;0.50;0.40;;;27.70;50.00;;;;;;10396670;28;20084;-44
2022/08/02 02:56:25;;;;;;;1.33;0.55;;;27.70;50.00;;;;;;10395953;28;20152;-43
2022/08/02 03:01:30;;;;;;;1.58;0.60;;;27.60;49.90;;;;;;10397405;28;20075;-45
2022/08/02 03:06:32;;;;;;;1.10;0.50;;;27.60;50.10;;;;;;10397278;28;20045;-42
2022/08/02 03:11:35;;;;;;;3.15;0.70;;;27.60;49.80;;;;;;10396186;28;20535;-43
2022/08/02 03:16:44;;;;;;;2.03;0.68;;;27.50;49.60;;;;;;10395956;28;20080;-42
2022/08/02 03:21:48;;;;;;;1.52;0.65;;;27.50;49.60;;;;;;10395870;28;20088;-47
2022/08/02 03:26:49;;;;;;;1.30;0.40;;;27.50;49.70;;;;;;10395743;28;20045;-43
2022/08/02 03:31:53;;;;;;;0.65;0.57;;;27.40;49.60;;;;;;10393587;28;20037;-46
2022/08/02 03:36:56;;;;;;;0.40;0.30;;;27.30;49.60;;;;;;10395452;28;20037;-43
2022/08/02 03:41:59;;;;;;;2.05;0.50;;;27.30;49.60;;;;;;10392439;28;20053;-44
2022/08/02 03:47:02;;;;;;;1.55;0.45;;;27.30;49.60;;;;;;10394207;28;20171;-44
2022/08/02 03:52:06;;;;;;;0.47;0.40;;;27.30;49.80;;;;;;10395527;28;20041;-46
2022/08/02 03:57:08;;;;;;;0.88;0.43;;;27.20;49.90;;;;;;10394839;28;20140;-46
2022/08/02 04:02:12;;;;;;;0.50;0.40;;;27.30;49.60;;;;;;10393923;28;20128;-47
2022/08/02 04:07:14;;;;;;;0.82;0.40;;;27.20;49.80;;;;;;10393881;28;20085;-49
2022/08/02 04:12:16;;;;;;;1.27;0.80;;;27.10;49.60;;;;;;10394125;28;20064;-43
2022/08/02 04:17:20;;;;;;;1.00;0.65;;;27.20;49.80;;;;;;10386432;28;20132;-50
2022/08/02 04:22:27;;;;;;;0.60;0.40;;;27.10;49.70;;;;;;10387685;28;21230;-42
2022/08/02 04:27:30;;;;;;;1.00;0.50;;;27.10;50.00;;;;;;10393255;28;20146;-46
2022/08/02 04:32:35;;;;;;;1.90;0.60;;;27.10;50.00;;;;;;10391476;28;20052;-43
2022/08/02 04:37:37;;;;;;;2.20;0.70;;;27.10;49.90;;;;;;10393012;28;20053;-46
2022/08/02 04:42:39;;;;;;;2.85;1.13;;;27.10;49.80;;;;;;10392691;28;20058;-46
2022/08/02 04:47:43;;;;;;;3.50;1.00;;;27.10;49.70;;;;;;10392067;28;20077;-42
2022/08/02 04:52:45;;;;;;;3.20;0.80;;;27.10;49.50;;;;;;10392538;28;20041;-44
2022/08/02 04:57:56;;;;;;;3.28;1.05;;;27.10;49.40;;;;;;10388359;28;20132;-47
2022/08/02 05:03:00;;;;;;;1.38;0.80;;;27.00;49.90;;;;;;10388144;28;20045;-49
2022/08/02 05:08:02;;;;;;;1.58;0.93;;;27.00;49.20;;;;;;10388496;28;20133;-45
2022/08/02 05:13:05;;;;;;;2.20;0.85;;;27.00;49.10;;;;;;10387082;28;20042;-43
2022/08/02 05:18:08;;;;;;;2.78;0.75;;;27.00;49.20;;;;;;10390044;28;20394;-51
2022/08/02 05:23:10;;;;;;;1.95;0.90;;;27.00;49.00;;;;;;10397846;28;20048;-44
2022/08/02 05:28:12;;;;;;;1.90;1.00;;;27.00;49.10;;;;;;10397273;28;20585;-48
2022/08/02 05:33:15;;;;;;;2.15;1.10;;;27.00;49.10;;;;;;10393103;28;20127;-43
2022/08/02 05:38:17;;;;;;;4.80;1.02;;;27.00;49.10;;;;;;10398631;28;20617;-45
2022/08/02 05:43:20;;;;;;;1.80;1.17;;;27.00;49.10;;;;;;10396863;28;20152;-45
2022/08/02 05:48:23;;;;;;;2.42;1.00;;;27.10;49.20;;;;;;10395861;28;20042;-45
2022/08/02 05:53:33;;;;;;;2.25;0.98;;;27.00;49.10;;;;;;10398047;28;20045;-43
2022/08/02 05:58:43;;;;;;;3.55;1.52;;;27.00;49.20;;;;;;10396433;28;20348;-47
2022/08/02 06:03:51;;;;;;;2.60;1.40;;;27.10;49.30;;;;;;10397217;28;20060;-47
2022/08/02 06:08:59;;;;;;;8.30;4.05;;;27.00;49.30;;;;;;10397165;28;20478;-43
2022/08/02 06:14:02;;;;;;;5.38;2.50;;;27.10;49.50;;;;;;10397309;28;20061;-43
2022/08/02 06:19:06;;;;;;;3.85;1.85;;;27.00;49.70;;;;;;10397292;28;20069;-44
2022/08/02 06:24:09;;;;;;;7.97;4.13;;;27.00;49.90;;;;;;10395651;28;20041;-46
2022/08/02 06:29:12;;;;;;;4.28;2.05;;;27.00;50.10;;;;;;10395139;28;20088;-45
2022/08/02 06:34:15;;;;;;;5.57;2.47;;;27.00;50.10;;;;;;10394984;28;20788;-47
2022/08/02 06:39:22;;;;;;;4.43;2.08;;;27.10;50.10;;;;;;10396011;28;20037;-46
2022/08/02 06:44:24;;;;;;;3.60;2.20;;;27.20;50.00;;;;;;10395249;28;20089;-42
2022/08/02 06:49:27;;;;;;;8.75;5.40;;;27.20;49.60;;;;;;10394107;28;20103;-46
2022/08/02 06:54:29;;;;;;;7.13;4.18;;;27.30;49.70;;;;;;10388841;28;20085;-43
2022/08/02 06:59:31;;;;;;;13.07;6.75;;;27.40;49.50;;;;;;10385446;28;20053;-43
2022/08/02 07:04:34;;;;;;;4.30;2.70;;;27.50;49.60;;;;;;10388079;28;20141;-44
2022/08/02 07:09:36;;;;;;;2.72;2.40;;;27.50;49.60;;;;;;10395311;28;20127;-44
2022/08/02 07:14:38;;;;;;;4.40;2.53;;;27.50;49.50;;;;;;10394041;28;20042;-45
2022/08/02 07:19:41;;;;;;;10.07;6.13;;;27.50;49.70;;;;;;10391956;28;20097;-45
2022/08/02 07:24:43;;;;;;;5.70;2.83;;;27.50;49.50;;;;;;10394425;28;20659;-46
2022/08/02 07:29:46;;;;;;;10.70;7.40;;;27.50;49.90;;;;;;10382502;28;20405;-42
2022/08/02 07:34:49;;;;;;;7.50;5.45;;;27.60;50.20;;;;;;10394468;28;20065;-49
2022/08/02 07:39:51;;;;;;;8.40;6.18;;;27.50;50.30;;;;;;10392964;28;20148;-43
2022/08/02 07:44:53;;;;;;;20.83;10.57;;;27.60;50.20;;;;;;10392253;28;20069;-46
2022/08/02 07:49:56;;;;;;;6.15;4.18;;;27.60;50.50;;;;;;10393624;28;20053;-43
2022/08/02 07:54:58;;;;;;;11.60;7.35;;;27.50;50.50;;;;;;10393997;28;20545;-44
2022/08/02 08:00:00;;;;;;;14.90;9.95;;;27.50;50.70;;;;;;10390886;28;20103;-44
2022/08/02 08:05:05;;;;;;;5.72;4.45;;;27.50;50.80;;;;;;10393820;28;20049;-44
2022/08/02 08:10:08;;;;;;;8.23;5.47;;;27.50;50.70;;;;;;10385243;28;20053;-48
2022/08/02 08:15:11;;;;;;;6.70;4.50;;;27.50;50.90;;;;;;10391844;28;20132;-45
2022/08/02 08:20:14;;;;;;;4.35;3.53;;;27.60;50.70;;;;;;10392099;28;20136;-45
2022/08/02 08:25:16;;;;;;;6.85;4.03;;;27.70;50.60;;;;;;10378280;28;20054;-40
2022/08/02 08:30:19;;;;;;;10.93;6.50;;;27.70;50.60;;;;;;10390784;28;20052;-42
2022/08/02 08:35:22;;;;;;;5.03;4.15;;;27.70;50.50;;;;;;10391253;28;20922;-42
2022/08/02 08:40:25;;;;;;;8.38;5.53;;;27.70;51.10;;;;;;10389771;28;20492;-43
2022/08/02 08:45:27;;;;;;;6.55;4.75;;;27.70;50.90;;;;;;10389694;28;20080;-45
2022/08/02 08:50:35;;;;;;;9.88;6.05;;;27.70;50.70;;;;;;10391553;28;20056;-43
2022/08/02 08:55:37;;;;;;;4.05;3.15;;;27.60;51.00;;;;;;10388835;28;20084;-42
2022/08/02 09:00:41;;;;;;;7.88;4.88;;;27.60;51.10;;;;;;10398311;28;20788;-40
2022/08/02 09:05:45;;;;;;;7.68;5.25;;;27.60;51.10;;;;;;10400023;28;20053;-43
2022/08/02 09:10:48;;;;;;;9.77;5.57;;;27.50;51.90;;;;;;10398642;28;20049;-48
2022/08/02 09:15:55;;;;;;;13.52;5.07;;;27.60;51.60;;;;;;10390869;28;20375;-41
2022/08/02 09:20:59;;;;;;;5.88;4.22;;;27.60;51.60;;;;;;10398885;28;20791;-46
2022/08/02 09:26:02;;;;;;;5.07;3.28;;;27.60;51.40;;;;;;10398896;28;20045;-46
2022/08/02 09:31:06;;;;;;;6.22;2.10;;;27.60;51.20;;;;;;10398671;28;20069;-48
2022/08/02 09:36:11;;;;;;;4.47;2.28;;;27.70;51.30;;;;;;10397598;28;20064;-43
2022/08/02 09:41:20;;;;;;;3.22;1.95;;;27.60;51.60;;;;;;10390169;28;20061;-43
2022/08/02 09:46:24;;;;;;;7.80;4.25;;;27.70;51.70;;;;;;10396931;28;20461;-41
2022/08/02 09:51:29;;;;;;;8.50;4.72;;;27.70;51.70;;;;;;10398597;28;20140;-47
2022/08/02 09:56:42;;;;;;;12.48;4.88;;;27.70;51.50;;;;;;10397580;28;20037;-45
2022/08/02 10:01:44;;;;;;;4.60;3.05;;;27.60;51.90;;;;;;10398807;28;20060;-46
2022/08/02 10:06:49;;;;;;;7.13;3.88;;;27.70;52.20;;;;;;10384157;28;20124;-45
2022/08/02 10:11:52;;;;;;;10.40;3.83;;;27.70;51.90;;;;;;10397428;28;20099;-43
2022/08/02 10:16:56;;;;;;;7.18;2.75;;;27.80;52.00;;;;;;10388624;28;20401;-41
2022/08/02 10:22:04;;;;;;;7.35;3.30;;;27.70;52.00;;;;;;10395635;28;20129;-43
2022/08/02 10:27:10;;;;;;;5.72;2.28;;;27.80;52.00;;;;;;10382690;28;20167;-44
2022/08/02 10:32:16;;;;;;;6.80;3.00;;;27.90;51.60;;;;;;10396055;28;20046;-46
2022/08/02 10:37:22;;;;;;;6.78;3.53;;;27.90;51.90;;;;;;10388082;28;20140;-44
2022/08/02 10:42:45;;;;;;;9.63;4.70;;;27.90;51.90;;;;;;10395047;28;20061;-45
2022/08/02 10:48:02;;;;;;;8.93;4.00;;;28.00;51.90;;;;;;10387569;28;20206;-41
2022/08/02 10:53:20;;;;;;;4.93;3.55;;;28.10;51.90;;;;;;10394880;28;20059;-40
2022/08/02 10:58:26;;;;;;;11.52;4.38;;;28.10;51.60;;;;;;10394487;28;20038;-42
2022/08/02 11:03:39;;;;;;;4.53;2.10;;;28.20;51.80;;;;;;10388965;28;20123;-41
2022/08/02 11:08:42;;;;;;;8.43;2.65;;;28.20;51.70;;;;;;10395620;28;20057;-43
2022/08/02 11:14:01;;;;;;;4.35;2.20;;;28.20;51.90;;;;;;10394475;28;20188;-43
2022/08/02 11:19:04;;;;;;;8.25;3.15;;;28.20;52.20;;;;;;10394072;28;20136;-40
2022/08/02 11:24:30;;;;;;;12.52;2.72;;;28.10;52.30;;;;;;10395119;28;20052;-47
2022/08/02 11:29:33;;;;;;;7.45;2.75;;;28.20;52.70;;;;;;10389758;28;20041;-45
2022/08/02 11:34:35;;;;;;;14.15;4.35;;;28.20;52.00;;;;;;10388324;28;20053;-46
2022/08/02 11:39:38;;;;;;;8.88;4.20;;;28.30;51.80;;;;;;10378234;28;20501;-43
2022/08/02 11:44:42;;;;;;;7.97;2.92;;;28.40;51.50;;;;;;10386251;28;20093;-48
2022/08/02 11:49:44;;;;;;;8.38;2.85;;;28.40;51.50;;;;;;10378707;28;20052;-44
2022/08/02 11:54:49;;;;;;;7.22;2.83;;;28.50;51.50;;;;;;10386821;28;20111;-42
2022/08/02 11:59:52;;;;;;;7.03;3.58;;;28.40;51.60;;;;;;10393349;28;20053;-43
2022/08/02 12:04:57;;;;;;;7.45;3.47;;;28.50;51.40;;;;;;10392718;28;20142;-41
2022/08/02 12:10:01;;;;;;;10.35;4.05;;;28.60;51.50;;;;;;10393639;28;20052;-40
2022/08/02 12:15:03;;;;;;;4.95;2.22;;;28.70;51.50;;;;;;10393363;28;20037;-45
2022/08/02 12:20:06;;;;;;;15.75;5.32;;;28.70;51.50;;;;;;10393454;28;20132;-42
2022/08/02 12:25:18;;;;;;;15.88;5.45;;;28.70;51.50;;;;;;10395135;28;20139;-40
2022/08/02 12:30:20;;;;;;;4.65;1.92;;;28.80;51.60;;;;;;10395332;28;20139;-44
2022/08/02 12:35:22;;;;;;;7.20;2.80;;;28.90;51.60;;;;;;10401340;28;20463;-42
2022/08/02 12:40:29;;;;;;;13.63;3.70;;;28.80;51.90;;;;;;10401175;28;20950;-39
2022/08/02 12:45:33;;;;;;;12.35;3.88;;;28.80;51.90;;;;;;10400122;28;20049;-45
2022/08/02 12:50:36;;;;;;;13.05;3.30;;;28.90;52.40;;;;;;10397394;28;20084;-41
2022/08/02 12:55:48;;;;;;;9.75;3.05;;;28.90;52.20;;;;;;10396692;28;20099;-42
2022/08/02 13:00:53;;;;;;;4.90;1.80;;;29.00;52.30;;;;;;10394379;28;21483;-41
2022/08/02 13:05:55;;;;;;;15.50;2.78;;;29.00;52.20;;;;;;10394329;28;20049;-43
2022/08/02 13:10:58;;;;;;;19.35;2.97;;;29.10;52.40;;;;;;10392875;28;20879;-45
2022/08/02 13:16:00;;;;;;;10.93;2.85;;;29.10;52.70;;;;;;10396844;28;20056;-43
2022/08/02 13:21:03;;;;;;;13.65;2.50;;;29.20;52.60;;;;;;10397297;28;20254;-44
2022/08/02 13:26:06;;;;;;;10.55;2.40;;;29.20;52.60;;;;;;10398347;28;20801;-44
2022/08/02 13:31:08;;;;;;;10.05;2.15;;;29.20;52.90;;;;;;10398421;28;21230;-39
2022/08/02 13:36:10;;;;;;;13.20;3.67;;;29.20;53.30;;;;;;10397894;28;20076;-42
2022/08/02 13:41:13;;;;;;;12.75;2.42;;;29.20;53.30;;;;;;10392891;28;20046;-41
2022/08/02 13:46:15;;;;;;;11.07;1.83;;;29.20;53.80;;;;;;10398231;28;20184;-42
2022/08/02 13:51:17;;;;;;;15.32;2.92;;;29.40;53.50;;;;;;10394564;28;20132;-44
2022/08/02 13:56:20;;;;;;;7.82;2.58;;;29.50;53.20;;;;;;10395296;28;20518;-40
2022/08/02 14:01:22;;;;;;;11.77;2.20;;;29.60;53.60;;;;;;10398221;28;20947;-45
2022/08/02 14:06:24;;;;;;;5.07;1.42;;;29.60;53.80;;;;;;10396204;28;20069;-43
2022/08/02 14:11:29;;;;;;;9.40;2.25;;;29.60;54.30;;;;;;10396740;28;20132;-43
2022/08/02 14:16:31;;;;;;;17.13;2.85;;;29.70;54.70;;;;;;10397227;28;20060;-41
2022/08/02 14:21:33;;;;;;;7.30;1.77;;;29.80;55.00;;;;;;10397494;28;20465;-41
2022/08/02 14:26:36;;;;;;;6.18;1.75;;;29.80;55.00;;;;;;10396281;28;20041;-41
2022/08/02 14:31:38;;;;;;;3.35;1.23;;;29.90;54.70;;;;;;10397374;28;20038;-47
2022/08/02 14:36:40;;;;;;;4.63;1.00;;;29.90;55.30;;;;;;10392197;28;20068;-40
2022/08/02 14:41:44;;;;;;;9.70;1.77;;;30.00;55.40;;;;;;10386277;28;20135;-40
2022/08/02 14:46:46;;;;;;;11.20;1.90;;;30.10;55.20;;;;;;10392022;28;20136;-41
2022/08/02 14:51:48;;;;;;;8.20;1.70;;;30.20;55.50;;;;;;10394888;28;20104;-43
2022/08/02 14:56:51;;;;;;;7.03;1.20;;;30.30;55.50;;;;;;10395562;28;20041;-45
2022/08/02 15:01:53;;;;;;;7.43;1.52;;;30.30;55.40;;;;;;10396146;28;20136;-38
2022/08/02 15:06:55;;;;;;;8.95;1.65;;;30.30;56.10;;;;;;10395194;28;20534;-46
2022/08/02 15:11:58;;;;;;;14.25;2.75;;;30.40;56.20;;;;;;10396114;28;20132;-42
2022/08/02 15:17:00;;;;;;;15.45;2.33;;;30.40;56.90;;;;;;10394539;28;20077;-40
2022/08/02 15:22:02;;;;;;;12.65;2.20;;;30.50;56.70;;;;;;10394431;28;20063;-42
2022/08/02 15:27:09;;;;;;;16.83;2.33;;;30.30;57.60;;;;;;10394852;28;20354;-43
2022/08/02 15:32:11;;;;;;;15.38;1.80;;;30.50;57.60;;;;;;10393395;28;20509;-39
2022/08/02 15:37:13;;;;;;;8.18;1.65;;;30.60;57.20;;;;;;10388826;28;20045;-44
2022/08/02 15:42:17;;;;;;;8.30;1.65;;;30.60;57.90;;;;;;10390872;28;20154;-40
2022/08/02 15:47:19;;;;;;;11.98;2.10;;;30.80;57.30;;;;;;10392383;28;20393;-39
2022/08/02 15:52:21;;;;;;;12.38;1.80;;;30.80;57.50;;;;;;10388187;28;20061;-42
2022/08/02 15:57:24;;;;;;;17.70;3.03;;;30.80;58.10;;;;;;10393520;28;20130;-41
2022/08/02 16:02:26;;;;;;;12.50;2.05;;;30.90;58.30;;;;;;10386764;28;20080;-41
2022/08/02 16:07:28;;;;;;;21.25;2.97;;;31.00;59.00;;;;;;10392102;28;20576;-41
2022/08/02 16:12:31;;;;;;;11.98;1.80;;;31.00;58.30;;;;;;10390450;28;20550;-44
2022/08/02 16:17:33;;;;;;;7.70;1.55;;;31.10;58.80;;;;;;10387429;28;20413;-41
2022/08/02 16:22:37;;;;;;;10.27;1.73;;;31.00;59.10;;;;;;10390673;28;20111;-41
2022/08/02 16:27:40;;;;;;;14.73;2.58;;;31.10;59.40;;;;;;10389150;28;20048;-45
2022/08/02 16:32:42;;;;;;;9.38;1.67;;;31.10;59.10;;;;;;10391184;28;20490;-41
2022/08/02 16:37:43;;;;;;;11.30;1.55;;;31.10;59.80;;;;;;10386236;28;20046;-45
2022/08/02 16:42:47;;;;;;;7.03;0.88;;;31.20;59.20;;;;;;10390879;28;20054;-41
2022/08/02 16:47:49;;;;;;;4.13;1.00;;;31.20;59.40;;;;;;10389106;28;20482;-41
2022/08/02 16:52:50;;;;;;;16.35;1.50;;;31.20;58.20;;;;;;10379094;28;20081;-40
2022/08/02 16:57:54;;;;;;;8.73;1.33;;;31.20;57.40;;;;;;10387376;28;20120;-40
2022/08/02 17:02:55;;;;;;;7.25;1.17;;;31.20;56.80;;;;;;10389675;28;20124;-43
2022/08/02 17:07:58;;;;;;;5.60;0.70;;;31.20;56.70;;;;;;10387361;28;20096;-40
2022/08/02 17:13:03;;;;;;;5.45;1.15;;;31.20;56.40;;;;;;10389067;28;20482;-40
2022/08/02 17:18:05;;;;;;;3.72;0.90;;;31.20;56.30;;;;;;10393556;28;20131;-42
2022/08/02 17:23:07;;;;;;;6.50;1.80;;;31.20;56.00;;;;;;10395303;28;20240;-41
2022/08/02 17:28:11;;;;;;;7.90;1.52;;;31.20;55.80;;;;;;10397918;28;20045;-39
2022/08/02 17:33:12;;;;;;;11.52;1.33;;;31.20;55.70;;;;;;10396067;28;20107;-44
2022/08/02 17:38:16;;;;;;;3.72;0.93;;;31.10;55.40;;;;;;10394673;28;20052;-40
2022/08/02 17:43:20;;;;;;;4.60;1.25;;;31.10;55.10;;;;;;10397781;28;20240;-44
2022/08/02 17:48:21;;;;;;;5.05;0.98;;;31.00;54.80;;;;;;10403199;28;20530;-40
2022/08/02 17:53:23;;;;;;;4.90;1.15;;;31.00;54.50;;;;;;10401831;28;20049;-42
2022/08/02 17:58:26;;;;;;;4.45;0.90;;;31.00;54.70;;;;;;10404534;28;20049;-40
2022/08/02 18:03:28;;;;;;;4.63;0.75;;;30.90;55.00;;;;;;10395437;28;20666;-41
2022/08/02 18:08:30;;;;;;;6.60;1.10;;;31.10;55.50;;;;;;10392989;28;20133;-40
2022/08/02 18:13:33;;;;;;;8.82;1.17;;;31.20;55.30;;;;;;10400124;28;20045;-42
2022/08/02 18:18:35;;;;;;;10.57;2.58;;;31.10;55.10;;;;;;10396398;28;20490;-40
2022/08/02 18:23:37;;;;;;;8.98;2.17;;;31.10;55.10;;;;;;10395399;28;20072;-39
2022/08/02 18:28:41;;;;;;;15.38;3.80;;;31.10;55.10;;;;;;10398522;28;20049;-41
2022/08/02 18:33:43;;;;;;;5.55;2.40;;;31.10;55.00;;;;;;10399687;28;20049;-42
2022/08/02 18:38:45;;;;;;;6.18;1.58;;;31.00;54.60;;;;;;10398492;28;20081;-38
2022/08/02 18:43:48;;;;;;;7.43;2.55;;;31.00;54.60;;;;;;10396773;28;20514;-42
2022/08/02 18:48:50;;;;;;;6.82;1.00;;;30.80;54.70;;;;;;10404138;28;20162;-41
2022/08/02 18:53:52;;;;;;;6.50;2.50;;;30.80;54.40;;;;;;10399748;28;20744;-39
2022/08/02 18:58:57;;;;;;;5.00;1.75;;;30.80;54.30;;;;;;10391662;28;20055;-41
2022/08/02 19:03:59;;;;;;;9.40;1.77;;;30.70;54.30;;;;;;10396576;28;20038;-47
2022/08/02 19:09:01;;;;;;;6.40;1.42;;;30.80;54.20;;;;;;10389130;28;20045;-42
2022/08/02 19:14:04;;;;;;;3.90;1.10;;;30.60;53.80;;;;;;10390771;28;20041;-40
2022/08/02 19:19:06;;;;;;;6.35;1.08;;;30.50;53.60;;;;;;10399980;28;20108;-44
2022/08/02 19:24:08;;;;;;;5.40;0.93;;;30.60;53.40;;;;;;10404673;28;20141;-44
2022/08/02 19:29:12;;;;;;;5.93;0.90;;;30.50;53.40;;;;;;10395611;28;20477;-43
2022/08/02 19:34:13;;;;;;;5.70;1.08;;;30.50;53.30;;;;;;10393978;28;20715;-40
2022/08/02 19:39:16;;;;;;;3.58;0.85;;;30.40;53.40;;;;;;10386719;28;20073;-40
2022/08/02 19:44:19;;;;;;;4.13;0.88;;;30.40;53.30;;;;;;10402753;28;20099;-40
2022/08/02 19:49:21;;;;;;;3.08;0.88;;;30.40;53.30;;;;;;10397259;28;20529;-41
2022/08/02 19:54:23;;;;;;;7.90;0.90;;;30.40;53.40;;;;;;10400717;28;20081;-44
2022/08/02 19:59:26;;;;;;;6.10;0.80;;;30.30;53.30;;;;;;10398895;28;20037;-42
2022/08/02 20:04:28;;;;;;;8.40;1.38;;;30.30;53.40;;;;;;10391104;28;20567;-42
2022/08/02 20:09:31;;;;;;;10.75;1.08;;;30.30;53.40;;;;;;10396970;28;20042;-45
2022/08/02 20:14:34;;;;;;;7.47;1.10;;;30.20;53.40;;;;;;10389344;28;20144;-42
2022/08/02 20:19:36;;;;;;;4.55;1.05;;;30.20;53.40;;;;;;10395072;28;20042;-45
2022/08/02 20:24:38;;;;;;;4.65;1.05;;;30.10;53.50;;;;;;10400500;28;20049;-46
2022/08/02 20:29:41;;;;;;;4.32;0.73;;;30.00;53.60;;;;;;10399454;28;20417;-45
2022/08/02 20:34:43;;;;;;;5.78;1.30;;;30.00;53.60;;;;;;10398783;28;20100;-42
2022/08/02 20:39:45;;;;;;;12.13;1.20;;;30.10;53.70;;;;;;10406944;28;20073;-41
2022/08/02 20:44:49;;;;;;;12.73;1.52;;;30.00;53.70;;;;;;10404372;28;20054;-40
2022/08/02 20:55:11;;;;;;;6.63;1.00;;;30.00;54.00;;;;;;10408396;28;20046;-43
2022/08/02 21:00:15;;;;;;;3.22;1.02;;;30.00;53.90;;;;;;10414524;28;20038;-41
2022/08/02 21:05:17;;;;;;;4.60;1.27;;;29.90;54.00;;;;;;10398927;28;20051;-40
2022/08/02 21:10:19;;;;;;;8.77;1.42;;;29.90;53.90;;;;;;10405375;28;20045;-40
2022/08/02 21:15:22;;;;;;;4.35;1.27;;;29.80;53.90;;;;;;10409862;28;20081;-43
2022/08/02 21:20:25;;;;;;;11.18;1.30;;;29.80;54.00;;;;;;10412055;28;20076;-41
2022/08/02 21:25:27;;;;;;;7.78;1.70;;;29.70;54.20;;;;;;10389462;28;20115;-41
2022/08/02 21:30:30;;;;;;;10.98;1.75;;;29.80;54.10;;;;;;10408515;28;20042;-40
2022/08/02 21:35:32;;;;;;;6.13;1.35;;;29.80;54.10;;;;;;10406424;28;20045;-43
2022/08/02 21:40:33;;;;;;;7.60;1.67;;;29.80;54.10;;;;;;10407264;28;20045;-40
2022/08/02 21:45:37;;;;;;;4.00;1.08;;;29.80;54.00;;;;;;10389916;28;20171;-45
2022/08/02 21:50:39;;;;;;;13.95;1.45;;;29.60;54.20;;;;;;10406524;28;20545;-40
2022/08/02 21:55:40;;;;;;;9.25;1.63;;;29.60;53.90;;;;;;10411744;28;20141;-44
2022/08/02 22:00:44;;;;;;;8.68;1.60;;;29.60;54.00;;;;;;10416978;28;20132;-45
2022/08/02 22:05:46;;;;;;;13.30;2.08;;;29.50;54.10;;;;;;10395683;28;20076;-42
2022/08/02 22:11:02;;;;;;;9.35;2.58;;;29.60;54.20;;;;;;10405602;28;20041;-41
2022/08/02 22:16:06;;;;;;;8.02;1.50;;;29.60;54.10;;;;;;10409780;28;20129;-41
2022/08/02 22:21:08;;;;;;;6.30;1.00;;;29.50;54.00;;;;;;10410140;28;20041;-46
2022/08/02 22:26:10;;;;;;;11.27;1.90;;;29.50;54.10;;;;;;10409686;28;20114;-44
2022/08/02 22:31:13;;;;;;;7.75;1.50;;;29.50;54.10;;;;;;10409630;28;20072;-41
2022/08/02 22:36:16;;;;;;;7.93;1.23;;;29.50;54.10;;;;;;10394401;28;20558;-42
2022/08/02 22:41:21;;;;;;;10.52;1.92;;;29.40;54.10;;;;;;10396087;28;20054;-42
2022/08/02 22:46:24;;;;;;;9.23;1.83;;;29.40;54.20;;;;;;10404531;28;20429;-42
2022/08/02 22:51:26;;;;;;;10.85;2.20;;;29.40;54.20;;;;;;10408782;28;20140;-40
2022/08/02 22:56:28;;;;;;;6.72;1.20;;;29.30;54.30;;;;;;10387670;28;20045;-41
2022/08/02 23:01:32;;;;;;;7.82;1.23;;;29.20;54.40;;;;;;10370955;28;20133;-41
2022/08/02 23:06:34;;;;;;;10.45;1.42;;;29.30;54.90;;;;;;10368217;28;20061;-40
2022/08/02 23:11:35;;;;;;;10.82;1.75;;;29.30;54.20;;;;;;10380120;28;20136;-41
2022/08/02 23:21:59;;;;;;;14.75;1.45;;;29.20;54.30;;;;;;10396644;28;20128;-42
2022/08/02 23:27:01;;;;;;;11.68;2.00;;;29.10;54.40;;;;;;10399312;28;20033;-41
2022/08/02 23:32:04;;;;;;;8.50;1.73;;;29.10;54.30;;;;;;10389787;28;20051;-41
2022/08/02 23:37:07;;;;;;;10.68;1.45;;;29.10;54.30;;;;;;10372599;28;20124;-48
2022/08/02 23:42:09;;;;;;;5.40;1.42;;;29.00;54.40;;;;;;10386041;28;20068;-42
2022/08/02 23:47:12;;;;;;;5.38;0.90;;;29.00;54.40;;;;;;10379632;28;20065;-41
2022/08/02 23:52:14;;;;;;;6.50;1.40;;;28.90;54.50;;;;;;10377639;28;20084;-41
2022/08/02 23:57:16;;;;;;;11.07;1.83;;;28.90;54.50;;;;;;10384142;28;20079;-43
